Time;durP1;ratioP1;P1;durP2;ratioP2;P2;SDS_P1;SDS_P2;PMS_P1;PMS_P2;Temp;Humidity;BMP_temperature;BMP_pressure;BME280_temperature;BME280_humidity;BME280_pressure;Samples;Min_cycle;Max_cycle;Signal;HPM_P1;HPM_P2
2024/02/23 00:01:15;;;;;;;0.70;0.40;;;8.00;99.90;;;;;;4976091;28;20412;-71
2024/02/23 00:03:41;;;;;;;3.43;0.60;;;8.00;99.90;;;;;;4992591;28;20203;-72
2024/02/23 00:06:06;;;;;;;0.83;0.50;;;8.00;99.90;;;;;;4996218;28;20187;-71
2024/02/23 00:08:32;;;;;;;0.90;0.50;;;7.90;99.90;;;;;;4996368;28;20230;-72
2024/02/23 00:10:58;;;;;;;0.70;0.40;;;7.90;99.90;;;;;;4979285;28;20201;-72
2024/02/23 00:13:23;;;;;;;1.47;0.60;;;7.90;99.90;;;;;;4990177;28;20606;-72
2024/02/23 00:15:49;;;;;;;1.47;0.67;;;8.10;99.90;;;;;;4996761;28;20173;-73
2024/02/23 00:18:16;;;;;;;1.87;0.70;;;8.20;99.90;;;;;;4996152;28;20170;-72
2024/02/23 00:20:41;;;;;;;0.90;0.50;;;8.20;99.90;;;;;;4996624;28;20516;-72
2024/02/23 00:23:07;;;;;;;0.90;0.50;;;8.20;99.90;;;;;;4984868;28;20498;-71
2024/02/23 00:25:33;;;;;;;0.70;0.50;;;8.10;99.90;;;;;;4976686;28;20190;-71
2024/02/23 00:27:58;;;;;;;0.80;0.50;;;8.20;99.90;;;;;;4976257;28;20187;-72
2024/02/23 00:30:24;;;;;;;1.70;0.70;;;8.30;99.90;;;;;;4976778;28;20224;-70
2024/02/23 00:32:49;;;;;;;1.30;0.80;;;8.20;99.90;;;;;;4983458;28;20172;-71
2024/02/23 00:35:15;;;;;;;0.80;0.60;;;8.20;99.90;;;;;;4996224;28;20180;-71
2024/02/23 00:37:41;;;;;;;4.50;0.90;;;8.10;99.90;;;;;;4996331;28;20168;-71
2024/02/23 00:40:07;;;;;;;1.50;0.90;;;8.10;99.90;;;;;;4995000;28;20254;-71
2024/02/23 00:42:32;;;;;;;1.87;0.80;;;8.30;99.90;;;;;;4989690;28;20416;-71
2024/02/23 00:44:58;;;;;;;0.80;0.50;;;8.40;99.90;;;;;;4977234;28;20443;-71
2024/02/23 00:47:23;;;;;;;0.90;0.50;;;8.40;99.90;;;;;;4976294;28;20568;-72
2024/02/23 00:49:49;;;;;;;1.47;0.57;;;8.30;99.90;;;;;;4976676;28;20546;-71
2024/02/23 00:52:16;;;;;;;2.00;0.60;;;8.40;99.90;;;;;;4979716;28;20186;-71
2024/02/23 00:54:41;;;;;;;0.70;0.50;;;8.30;99.90;;;;;;4993969;28;20191;-71
2024/02/23 00:57:07;;;;;;;0.90;0.60;;;8.30;99.90;;;;;;4995488;28;20413;-71
2024/02/23 00:59:32;;;;;;;0.97;0.50;;;8.30;99.90;;;;;;4995365;28;20542;-71
2024/02/23 01:01:58;;;;;;;0.93;0.50;;;8.50;99.90;;;;;;4993826;28;20194;-71
2024/02/23 01:04:23;;;;;;;1.20;0.60;;;8.30;99.90;;;;;;4975660;28;20199;-71
2024/02/23 01:06:49;;;;;;;1.40;0.60;;;8.30;99.90;;;;;;4976674;28;20183;-71
2024/02/23 01:09:16;;;;;;;2.17;0.50;;;8.40;99.90;;;;;;4975558;28;20718;-71
2024/02/23 01:11:42;;;;;;;0.90;0.53;;;8.20;99.90;;;;;;4976067;28;20223;-71
2024/02/23 01:14:08;;;;;;;3.67;0.80;;;8.30;99.90;;;;;;4994543;28;20441;-72
2024/02/23 01:16:33;;;;;;;2.67;0.60;;;8.30;99.90;;;;;;4994992;28;20222;-71
2024/02/23 01:18:59;;;;;;;1.80;1.10;;;8.30;99.90;;;;;;4995432;28;20188;-71
2024/02/23 01:21:24;;;;;;;2.53;0.70;;;8.40;99.90;;;;;;4995146;28;20407;-72
2024/02/23 01:23:50;;;;;;;0.90;0.50;;;8.40;99.90;;;;;;4995782;28;20200;-71
2024/02/23 01:26:15;;;;;;;1.67;0.70;;;8.30;99.90;;;;;;4994630;28;20188;-71
2024/02/23 01:28:41;;;;;;;1.67;0.60;;;8.40;99.90;;;;;;4995867;28;20176;-71
2024/02/23 01:31:11;;;;;;;2.60;0.70;;;8.50;99.90;;;;;;4994988;28;20232;-71
2024/02/23 01:33:37;;;;;;;1.20;0.80;;;8.50;99.90;;;;;;4980970;28;20213;-71
2024/02/23 01:36:10;;;;;;;4.57;0.80;;;8.50;99.90;;;;;;4975225;28;20504;-71
2024/02/23 01:38:35;;;;;;;1.57;1.10;;;8.50;99.90;;;;;;4975260;28;20453;-72
2024/02/23 01:41:01;;;;;;;2.10;0.90;;;8.40;99.90;;;;;;4975391;28;20810;-71
2024/02/23 01:43:27;;;;;;;2.63;0.70;;;8.30;99.90;;;;;;4987078;28;20217;-72
2024/02/23 01:45:53;;;;;;;2.13;0.70;;;8.30;99.90;;;;;;4994667;28;20554;-71
2024/02/23 01:48:20;;;;;;;2.53;0.80;;;8.30;99.90;;;;;;4994261;28;20166;-71
2024/02/23 01:50:46;;;;;;;3.23;0.87;;;8.30;99.90;;;;;;4994773;28;20460;-72
2024/02/23 01:53:13;;;;;;;1.60;0.70;;;8.60;99.90;;;;;;4984042;28;20868;-72
2024/02/23 01:55:41;;;;;;;2.47;0.90;;;8.60;99.90;;;;;;4975290;28;20404;-71
2024/02/23 01:58:07;;;;;;;1.10;0.60;;;8.70;99.90;;;;;;4975037;28;20433;-71
2024/02/23 02:00:35;;;;;;;2.30;0.70;;;8.40;99.90;;;;;;4974728;28;20414;-72
2024/02/23 02:03:00;;;;;;;1.50;0.83;;;8.40;99.90;;;;;;4984433;28;20397;-72
2024/02/23 02:05:26;;;;;;;2.23;0.70;;;8.40;99.90;;;;;;4994025;28;20415;-71
2024/02/23 02:07:58;;;;;;;3.50;0.77;;;8.50;99.90;;;;;;4994144;28;20281;-72
2024/02/23 02:10:24;;;;;;;2.23;0.70;;;8.60;99.90;;;;;;4993814;28;20517;-72
2024/02/23 02:12:50;;;;;;;1.50;0.70;;;8.40;99.90;;;;;;4982525;28;20420;-72
2024/02/23 02:15:16;;;;;;;4.10;0.70;;;8.30;99.90;;;;;;4994417;28;20927;-71
2024/02/23 02:17:41;;;;;;;1.83;1.10;;;8.30;99.90;;;;;;4994210;28;20186;-71
2024/02/23 02:20:12;;;;;;;2.50;0.77;;;8.40;99.90;;;;;;4994628;28;20421;-71
2024/02/23 02:22:37;;;;;;;1.00;0.77;;;8.50;99.90;;;;;;4989080;28;20166;-72
2024/02/23 02:25:04;;;;;;;1.60;0.77;;;8.60;99.90;;;;;;4974204;28;20951;-71
2024/02/23 02:27:29;;;;;;;3.23;0.60;;;8.60;99.90;;;;;;4972987;28;20175;-71
2024/02/23 02:29:55;;;;;;;1.47;0.80;;;8.50;99.90;;;;;;4974317;28;20751;-72
2024/02/23 02:32:21;;;;;;;1.60;0.70;;;8.40;99.90;;;;;;4977127;28;20208;-72
2024/02/23 02:34:46;;;;;;;1.40;0.80;;;8.50;99.90;;;;;;4994513;28;20192;-73
2024/02/23 02:37:12;;;;;;;2.10;0.80;;;8.60;99.90;;;;;;4994919;28;20177;-73
2024/02/23 02:39:38;;;;;;;1.23;0.73;;;8.50;99.90;;;;;;4994234;28;20169;-73
2024/02/23 02:42:03;;;;;;;2.50;1.07;;;8.30;99.90;;;;;;4993609;28;20203;-73
2024/02/23 02:44:30;;;;;;;1.03;0.60;;;8.20;99.90;;;;;;4974203;28;20190;-73
2024/02/23 02:46:56;;;;;;;3.83;1.03;;;8.20;99.90;;;;;;4974328;28;20177;-71
2024/02/23 02:49:22;;;;;;;1.30;0.83;;;8.10;99.90;;;;;;4974305;28;20414;-72
2024/02/23 02:51:48;;;;;;;0.90;0.60;;;8.10;99.90;;;;;;4974196;28;20547;-72
2024/02/23 02:54:13;;;;;;;1.97;0.60;;;8.20;99.90;;;;;;4991915;28;20210;-72
2024/02/23 02:56:47;;;;;;;1.03;0.60;;;8.00;99.90;;;;;;4996310;28;20172;-72
2024/02/23 02:59:13;;;;;;;2.10;0.80;;;8.10;99.90;;;;;;4997498;28;20168;-72
2024/02/23 03:01:39;;;;;;;1.87;0.87;;;8.20;99.90;;;;;;4997533;28;20413;-72
2024/02/23 03:04:05;;;;;;;2.03;0.63;;;8.20;99.90;;;;;;4980875;28;20249;-72
2024/02/23 03:06:31;;;;;;;1.93;1.07;;;8.30;99.90;;;;;;4977803;28;20423;-72
2024/02/23 03:08:56;;;;;;;2.60;0.90;;;8.00;99.90;;;;;;4977628;28;20254;-71
2024/02/23 03:11:22;;;;;;;1.77;0.97;;;7.80;99.90;;;;;;4989155;28;20196;-73
2024/02/23 03:13:47;;;;;;;4.20;0.90;;;7.80;99.90;;;;;;4997369;28;20189;-72
2024/02/23 03:16:20;;;;;;;1.43;0.80;;;7.80;99.90;;;;;;4997221;28;20172;-72
2024/02/23 03:18:46;;;;;;;1.10;0.60;;;7.70;99.90;;;;;;4997217;28;20239;-72
2024/02/23 03:21:14;;;;;;;1.97;0.80;;;7.60;99.90;;;;;;4997028;28;20488;-72
2024/02/23 03:23:39;;;;;;;1.43;0.67;;;7.60;99.90;;;;;;4996983;28;20780;-72
2024/02/23 03:26:07;;;;;;;2.40;0.77;;;7.60;99.90;;;;;;4997263;28;20472;-72
2024/02/23 03:28:33;;;;;;;2.30;0.70;;;7.70;99.90;;;;;;4997251;28;20595;-72
2024/02/23 03:30:59;;;;;;;1.97;0.90;;;7.80;99.90;;;;;;4996764;28;20442;-72
2024/02/23 03:33:25;;;;;;;1.20;0.70;;;8.00;99.90;;;;;;4986144;28;20616;-72
2024/02/23 03:35:51;;;;;;;1.10;0.70;;;7.80;99.90;;;;;;4977570;28;20449;-72
2024/02/23 03:38:16;;;;;;;1.20;0.93;;;7.90;99.90;;;;;;4977075;28;20171;-72
2024/02/23 03:40:42;;;;;;;1.13;0.70;;;8.00;99.90;;;;;;4977284;28;20174;-72
2024/02/23 03:43:08;;;;;;;1.10;0.90;;;8.10;99.90;;;;;;4985935;28;20203;-72
2024/02/23 03:45:33;;;;;;;2.10;0.67;;;8.10;99.90;;;;;;4995609;28;20643;-72
2024/02/23 03:48:00;;;;;;;1.10;0.70;;;8.00;99.90;;;;;;4996792;28;20168;-72
2024/02/23 03:50:25;;;;;;;2.40;0.87;;;8.10;99.90;;;;;;4997737;28;20199;-73
2024/02/23 03:52:51;;;;;;;2.20;0.73;;;8.10;99.90;;;;;;4990795;28;20938;-72
2024/02/23 03:55:16;;;;;;;3.97;0.90;;;8.30;99.90;;;;;;4977471;28;20644;-73
2024/02/23 03:57:42;;;;;;;2.10;0.80;;;8.20;99.90;;;;;;4976990;28;20168;-72
2024/02/23 04:00:09;;;;;;;1.30;0.67;;;7.90;99.90;;;;;;4977311;28;20251;-71
2024/02/23 04:02:34;;;;;;;1.67;0.70;;;7.90;99.90;;;;;;4982522;28;20170;-72
2024/02/23 04:05:00;;;;;;;4.03;1.20;;;7.90;99.90;;;;;;4996205;28;20922;-72
2024/02/23 04:07:26;;;;;;;1.30;0.80;;;7.90;99.90;;;;;;4996253;28;20173;-72
2024/02/23 04:09:54;;;;;;;1.77;0.80;;;8.00;99.90;;;;;;4996297;28;20219;-72
2024/02/23 04:12:21;;;;;;;1.53;0.87;;;8.10;99.90;;;;;;4994633;28;20211;-72
2024/02/23 04:14:47;;;;;;;2.70;0.90;;;8.20;99.90;;;;;;4976509;28;20439;-71
2024/02/23 04:17:13;;;;;;;2.20;0.80;;;8.10;99.90;;;;;;4987005;28;20422;-73
2024/02/23 04:19:40;;;;;;;1.37;0.63;;;8.10;99.90;;;;;;4996108;28;20442;-72
2024/02/23 04:22:09;;;;;;;2.20;0.90;;;8.20;99.90;;;;;;4996251;28;20418;-72
2024/02/23 04:24:38;;;;;;;3.10;0.80;;;8.20;99.90;;;;;;4976373;28;20442;-72
2024/02/23 04:27:07;;;;;;;2.03;1.70;;;8.10;99.90;;;;;;4976382;28;20410;-72
2024/02/23 04:29:33;;;;;;;3.03;1.13;;;8.20;99.90;;;;;;4976810;28;20420;-71
2024/02/23 04:32:02;;;;;;;1.47;0.73;;;8.20;99.90;;;;;;4976149;28;20529;-71
2024/02/23 04:34:28;;;;;;;2.77;0.73;;;8.00;99.90;;;;;;4994621;28;20198;-72
2024/02/23 04:36:54;;;;;;;1.07;0.60;;;8.00;99.90;;;;;;4995832;28;20404;-72
2024/02/23 04:39:20;;;;;;;2.20;1.07;;;7.90;99.90;;;;;;4995407;28;20239;-71
2024/02/23 04:41:46;;;;;;;1.57;0.87;;;7.90;99.90;;;;;;4995607;28;20403;-72
2024/02/23 04:44:11;;;;;;;2.40;0.77;;;7.80;99.90;;;;;;4978462;28;20450;-72
2024/02/23 04:46:37;;;;;;;4.03;0.80;;;7.80;99.90;;;;;;4976286;28;20549;-71
2024/02/23 04:49:03;;;;;;;1.00;0.80;;;7.70;99.90;;;;;;4976163;28;20547;-73
2024/02/23 04:51:28;;;;;;;2.03;1.07;;;7.60;99.90;;;;;;4975976;28;20201;-73
2024/02/23 04:53:54;;;;;;;2.77;0.80;;;7.40;99.90;;;;;;4989098;28;20205;-73
2024/02/23 04:56:20;;;;;;;2.13;0.80;;;7.50;99.90;;;;;;4995383;28;20512;-72
2024/02/23 04:58:46;;;;;;;3.37;0.90;;;7.70;99.90;;;;;;4995243;28;20234;-73
2024/02/23 05:01:12;;;;;;;1.40;0.70;;;7.80;99.90;;;;;;4995196;28;20854;-72
2024/02/23 05:03:38;;;;;;;1.57;0.80;;;7.80;99.90;;;;;;4983977;28;20529;-72
2024/02/23 05:06:04;;;;;;;4.40;0.80;;;7.80;99.90;;;;;;4975808;28;20451;-72
2024/02/23 05:08:30;;;;;;;5.97;1.10;;;7.90;99.90;;;;;;4981641;28;20179;-72
2024/02/23 05:10:59;;;;;;;2.77;1.13;;;7.60;99.90;;;;;;4995060;28;20813;-73
2024/02/23 05:13:24;;;;;;;4.00;1.20;;;7.60;99.90;;;;;;4986062;28;20877;-72
2024/02/23 05:15:50;;;;;;;1.10;0.63;;;7.60;99.90;;;;;;4975492;28;20439;-71
2024/02/23 05:18:16;;;;;;;1.77;0.87;;;7.60;99.90;;;;;;4988616;28;20210;-72
2024/02/23 05:20:41;;;;;;;1.73;0.80;;;7.50;99.90;;;;;;4990547;28;20185;-72
2024/02/23 05:25:36;;;;;;;2.10;0.80;;;7.30;99.90;;;;;;4993563;28;20270;-71
2024/02/23 05:28:02;;;;;;;2.30;1.13;;;7.30;99.90;;;;;;4994310;28;20400;-71
2024/02/23 05:30:31;;;;;;;2.63;1.40;;;7.40;99.90;;;;;;4994256;28;20176;-70
2024/02/23 05:32:58;;;;;;;1.73;0.90;;;7.40;99.90;;;;;;4994267;28;20176;-72
2024/02/23 05:35:24;;;;;;;2.30;0.93;;;7.40;99.90;;;;;;4994288;28;20423;-71
2024/02/23 05:37:50;;;;;;;2.03;0.83;;;7.30;99.90;;;;;;4994355;28;20500;-70
2024/02/23 05:40:15;;;;;;;1.37;0.80;;;7.40;99.90;;;;;;4994306;28;20490;-70
2024/02/23 05:42:41;;;;;;;1.77;0.77;;;7.30;99.90;;;;;;4994219;28;20424;-71
2024/02/23 05:45:11;;;;;;;2.90;0.90;;;7.30;99.90;;;;;;4993923;28;20569;-71
2024/02/23 05:47:37;;;;;;;2.60;1.20;;;7.30;99.90;;;;;;4993919;28;20179;-71
2024/02/23 05:50:12;;;;;;;2.60;1.20;;;7.30;99.90;;;;;;4994080;28;20966;-70
2024/02/23 05:52:39;;;;;;;1.83;0.70;;;7.20;99.90;;;;;;4991609;28;20551;-70
2024/02/23 05:55:05;;;;;;;2.37;0.87;;;7.10;99.90;;;;;;4974504;28;20431;-70
2024/02/23 05:57:31;;;;;;;4.07;1.30;;;7.10;99.90;;;;;;4974782;28;20957;-70
2024/02/23 05:59:56;;;;;;;2.00;0.87;;;7.10;99.90;;;;;;4974632;28;20938;-71
2024/02/23 06:02:22;;;;;;;2.53;0.97;;;7.00;99.90;;;;;;4975898;28;20416;-70
2024/02/23 06:04:48;;;;;;;2.10;0.77;;;6.90;99.90;;;;;;4974284;28;20286;-71
2024/02/23 06:07:17;;;;;;;3.40;0.90;;;6.80;99.90;;;;;;4974316;28;20192;-71
2024/02/23 06:09:43;;;;;;;1.17;0.83;;;6.70;99.90;;;;;;4974631;28;20181;-71
2024/02/23 06:12:09;;;;;;;2.27;0.80;;;6.50;99.90;;;;;;4974561;28;20477;-71
2024/02/23 06:14:35;;;;;;;4.03;0.90;;;6.50;99.90;;;;;;4991559;28;20944;-71
2024/02/23 06:17:02;;;;;;;3.67;1.40;;;6.50;99.90;;;;;;4993747;28;20582;-70
2024/02/23 06:19:28;;;;;;;1.33;0.70;;;6.40;99.90;;;;;;4993659;28;20464;-70
2024/02/23 06:21:54;;;;;;;2.10;0.87;;;6.30;99.90;;;;;;4993821;28;20421;-71
2024/02/23 06:24:19;;;;;;;1.57;0.70;;;6.40;99.90;;;;;;4993571;28;20453;-70
2024/02/23 06:26:46;;;;;;;1.43;0.70;;;6.50;99.90;;;;;;4985481;28;20195;-70
2024/02/23 06:29:13;;;;;;;6.00;0.93;;;6.50;99.90;;;;;;4974190;28;20240;-70
2024/02/23 06:31:39;;;;;;;1.57;0.90;;;6.50;99.90;;;;;;4973183;28;20831;-70
2024/02/23 06:34:05;;;;;;;2.03;1.30;;;6.50;99.90;;;;;;4989272;28;20435;-70
2024/02/23 06:36:31;;;;;;;3.93;0.80;;;6.40;99.90;;;;;;4993318;28;20415;-70
2024/02/23 06:38:56;;;;;;;3.27;0.70;;;6.40;99.90;;;;;;4993607;28;20410;-71
2024/02/23 06:41:22;;;;;;;2.20;1.00;;;6.40;99.90;;;;;;4993721;28;20177;-71
2024/02/23 06:43:48;;;;;;;2.33;1.10;;;6.40;99.90;;;;;;4982573;28;20280;-71
2024/02/23 06:46:13;;;;;;;4.47;2.10;;;6.30;99.90;;;;;;4974192;28;20689;-69
2024/02/23 06:48:39;;;;;;;1.70;0.90;;;6.30;99.90;;;;;;4974379;28;20202;-69
2024/02/23 06:51:05;;;;;;;3.87;1.70;;;6.30;99.90;;;;;;4974362;28;20611;-70
2024/02/23 06:53:31;;;;;;;3.63;1.17;;;6.30;99.90;;;;;;4982497;28;20194;-71
2024/02/23 06:55:56;;;;;;;2.00;1.30;;;6.30;99.90;;;;;;4993601;28;20413;-71
2024/02/23 06:58:22;;;;;;;2.97;1.00;;;6.30;99.90;;;;;;5006079;28;20162;-71
2024/02/23 07:00:48;;;;;;;2.80;1.23;;;6.40;99.90;;;;;;5014799;28;20168;-70
2024/02/23 07:03:14;;;;;;;2.10;1.00;;;6.60;99.90;;;;;;5007940;28;20167;-70
2024/02/23 07:05:42;;;;;;;3.90;1.00;;;6.70;99.90;;;;;;5002790;28;20215;-70
2024/02/23 07:08:07;;;;;;;1.93;1.27;;;6.60;99.90;;;;;;5014437;28;20410;-70
2024/02/23 07:10:33;;;;;;;2.97;1.10;;;6.80;99.90;;;;;;5013700;28;20405;-71
2024/02/23 07:12:59;;;;;;;2.13;1.30;;;7.00;99.90;;;;;;5009131;28;20293;-71
2024/02/23 07:15:25;;;;;;;3.13;1.20;;;7.00;99.90;;;;;;4991382;28;20272;-70
2024/02/23 07:17:54;;;;;;;3.10;1.30;;;7.20;99.90;;;;;;4993262;28;20191;-70
2024/02/23 07:20:19;;;;;;;2.33;1.07;;;7.20;99.90;;;;;;4995437;28;20437;-69
2024/02/23 07:22:46;;;;;;;7.27;1.30;;;7.30;99.90;;;;;;4997426;28;20426;-70
2024/02/23 07:25:15;;;;;;;1.70;0.87;;;7.30;99.90;;;;;;5014452;28;20215;-70
2024/02/23 07:27:40;;;;;;;3.27;1.63;;;7.40;99.90;;;;;;5004611;28;20418;-70
2024/02/23 07:30:07;;;;;;;1.87;1.10;;;7.50;99.90;;;;;;4993158;28;20419;-70
2024/02/23 07:32:32;;;;;;;4.10;1.53;;;7.50;99.90;;;;;;4993360;28;20686;-70
2024/02/23 07:34:58;;;;;;;3.70;1.80;;;7.70;99.90;;;;;;4992503;28;20430;-72
2024/02/23 07:37:27;;;;;;;3.43;1.60;;;7.90;99.90;;;;;;4992837;28;20170;-71
2024/02/23 07:39:52;;;;;;;1.50;1.00;;;7.90;99.90;;;;;;4993366;28;20698;-71
2024/02/23 07:42:18;;;;;;;2.20;1.13;;;8.00;99.90;;;;;;4994622;28;20442;-70
2024/02/23 07:44:44;;;;;;;5.30;0.83;;;8.10;99.90;;;;;;4978946;28;20268;-70
2024/02/23 07:47:11;;;;;;;3.43;1.10;;;8.00;99.90;;;;;;4977084;28;20802;-71
2024/02/23 07:49:36;;;;;;;1.50;0.90;;;8.00;99.90;;;;;;4975508;28;20729;-71
2024/02/23 07:52:03;;;;;;;2.17;1.00;;;8.10;99.90;;;;;;4976792;28;20440;-72
2024/02/23 07:54:29;;;;;;;2.33;1.10;;;8.00;99.90;;;;;;4992080;28;20191;-70
2024/02/23 07:56:54;;;;;;;1.80;1.07;;;8.00;99.90;;;;;;4996127;28;20459;-71
2024/02/23 07:59:20;;;;;;;1.80;1.30;;;7.90;99.90;;;;;;4995010;28;20271;-71
2024/02/23 08:01:46;;;;;;;2.63;1.40;;;7.80;99.90;;;;;;4996168;28;20177;-71
2024/02/23 08:04:13;;;;;;;2.60;1.40;;;7.60;99.90;;;;;;4983032;28;20196;-70
2024/02/23 08:06:39;;;;;;;3.13;1.10;;;7.70;99.90;;;;;;4976981;28;20412;-70
2024/02/23 08:09:04;;;;;;;1.33;1.00;;;7.70;99.90;;;;;;4975149;28;20752;-70
2024/02/23 08:11:30;;;;;;;2.40;1.43;;;7.90;99.90;;;;;;4977980;28;20279;-70
2024/02/23 08:13:55;;;;;;;3.93;1.90;;;7.80;99.90;;;;;;4985922;28;20188;-70
2024/02/23 08:16:21;;;;;;;2.00;1.20;;;7.80;99.90;;;;;;4995619;28;20192;-70
2024/02/23 08:18:47;;;;;;;2.47;1.00;;;7.80;99.90;;;;;;4992865;28;20173;-69
2024/02/23 08:21:12;;;;;;;1.07;0.77;;;7.70;99.90;;;;;;4995893;28;20187;-71
2024/02/23 08:23:38;;;;;;;1.60;1.07;;;7.80;99.90;;;;;;4987324;28;20214;-70
2024/02/23 08:26:04;;;;;;;3.00;1.50;;;8.00;99.90;;;;;;4976187;28;20554;-70
2024/02/23 08:28:29;;;;;;;2.33;1.30;;;7.80;99.90;;;;;;4976380;28;20188;-71
2024/02/23 08:30:55;;;;;;;1.87;1.07;;;7.50;99.90;;;;;;4976091;28;20184;-71
2024/02/23 08:33:20;;;;;;;3.10;1.53;;;7.70;99.90;;;;;;4981490;28;20175;-71
2024/02/23 08:35:48;;;;;;;2.00;1.43;;;7.70;99.90;;;;;;4996055;28;20539;-71
2024/02/23 08:38:14;;;;;;;2.00;1.20;;;7.80;99.90;;;;;;4996054;28;20220;-71
2024/02/23 08:40:39;;;;;;;3.20;1.50;;;7.80;99.90;;;;;;4995137;28;20460;-71
2024/02/23 08:43:05;;;;;;;3.13;1.27;;;7.70;99.90;;;;;;4991579;28;20508;-71
2024/02/23 08:45:31;;;;;;;1.33;0.90;;;7.60;99.90;;;;;;4975918;28;20223;-71
2024/02/23 08:47:56;;;;;;;2.20;1.17;;;7.60;99.90;;;;;;4975740;28;20515;-71
2024/02/23 08:50:22;;;;;;;1.40;1.00;;;7.60;99.90;;;;;;4984657;28;20170;-71
2024/02/23 08:52:48;;;;;;;2.10;0.77;;;7.80;99.90;;;;;;5003038;28;20219;-71
2024/02/23 08:55:13;;;;;;;1.37;1.10;;;7.90;99.90;;;;;;4994463;28;20208;-70
2024/02/23 08:57:39;;;;;;;3.33;1.13;;;8.00;99.90;;;;;;4994997;28;20172;-71
2024/02/23 09:00:05;;;;;;;3.13;1.10;;;7.90;99.90;;;;;;4995173;28;20175;-70
2024/02/23 09:02:32;;;;;;;1.43;1.00;;;7.70;99.90;;;;;;4994848;28;20601;-71
2024/02/23 09:04:58;;;;;;;3.80;1.20;;;7.70;99.90;;;;;;4995203;28;20796;-71
2024/02/23 09:07:23;;;;;;;2.67;1.03;;;7.70;99.90;;;;;;4994653;28;20411;-69
2024/02/23 09:09:49;;;;;;;2.73;1.23;;;7.90;99.90;;;;;;4994833;28;20172;-71
2024/02/23 09:12:16;;;;;;;1.77;1.20;;;7.80;99.90;;;;;;4994179;28;20235;-70
2024/02/23 09:14:43;;;;;;;3.10;1.10;;;7.70;99.90;;;;;;4978547;28;20331;-70
2024/02/23 09:17:09;;;;;;;4.20;1.40;;;7.70;99.90;;;;;;4975515;28;20416;-70
2024/02/23 09:19:36;;;;;;;6.90;1.60;;;7.70;99.90;;;;;;4976059;28;20868;-70
2024/02/23 09:22:02;;;;;;;5.80;1.50;;;7.60;99.90;;;;;;4975176;28;20423;-69
2024/02/23 09:24:28;;;;;;;2.53;1.30;;;7.70;99.90;;;;;;4988523;28;20829;-70
2024/02/23 09:26:53;;;;;;;3.53;1.10;;;7.80;99.90;;;;;;4994659;28;20439;-70
2024/02/23 09:29:19;;;;;;;2.03;1.03;;;7.60;99.90;;;;;;4994565;28;20171;-70
2024/02/23 09:31:44;;;;;;;5.70;1.47;;;7.70;99.90;;;;;;4994203;28;20247;-70
2024/02/23 09:34:10;;;;;;;3.17;1.30;;;7.90;99.90;;;;;;4994029;28;20685;-70
2024/02/23 09:36:36;;;;;;;2.87;0.90;;;8.00;99.90;;;;;;4994091;28;20527;-70
2024/02/23 09:39:04;;;;;;;1.97;1.10;;;8.30;99.90;;;;;;4994234;28;20810;-70
2024/02/23 09:41:30;;;;;;;2.50;1.20;;;8.30;99.90;;;;;;4992480;28;20200;-70
2024/02/23 09:43:58;;;;;;;2.20;1.27;;;8.50;99.90;;;;;;4983035;28;20479;-71
2024/02/23 09:46:25;;;;;;;2.87;1.10;;;8.50;99.90;;;;;;4974377;28;20213;-70
2024/02/23 09:48:51;;;;;;;1.67;0.90;;;8.30;99.90;;;;;;4974493;28;20988;-69
2024/02/23 09:51:17;;;;;;;5.30;1.30;;;8.40;99.90;;;;;;4974363;28;20551;-70
2024/02/23 09:53:44;;;;;;;3.53;1.87;;;8.60;99.90;;;;;;4981662;28;20690;-71
2024/02/23 09:56:10;;;;;;;3.37;1.07;;;8.40;99.90;;;;;;4994088;28;20760;-70
2024/02/23 09:58:37;;;;;;;2.50;0.90;;;8.40;99.90;;;;;;4993963;28;20423;-69
2024/02/23 10:01:03;;;;;;;1.77;1.10;;;8.40;99.90;;;;;;4993999;28;20909;-70
2024/02/23 10:03:30;;;;;;;2.90;0.90;;;8.60;99.90;;;;;;4987248;28;20780;-71
2024/02/23 10:05:56;;;;;;;2.00;1.33;;;8.60;99.90;;;;;;4987341;28;20419;-71
2024/02/23 10:08:22;;;;;;;4.03;0.93;;;8.50;99.90;;;;;;4994051;28;20406;-72
2024/02/23 10:10:50;;;;;;;5.13;1.37;;;8.70;99.90;;;;;;4992471;28;20519;-71
2024/02/23 10:13:29;;;;;;;2.40;1.17;;;8.80;99.90;;;;;;4990010;28;20168;-71
2024/02/23 10:15:55;;;;;;;4.77;1.40;;;8.90;99.90;;;;;;4977253;28;20404;-71
2024/02/23 10:18:20;;;;;;;3.27;1.20;;;8.70;99.90;;;;;;4992259;28;20423;-70
2024/02/23 10:20:48;;;;;;;5.00;1.50;;;8.60;99.90;;;;;;4993530;28;20431;-70
2024/02/23 10:23:13;;;;;;;4.13;1.23;;;8.60;99.90;;;;;;4990549;28;20244;-70
2024/02/23 10:25:39;;;;;;;1.90;1.17;;;8.70;99.90;;;;;;4974344;28;20551;-69
2024/02/23 10:28:06;;;;;;;3.00;1.43;;;8.80;99.90;;;;;;4973899;28;20586;-71
2024/02/23 10:30:33;;;;;;;11.00;1.83;;;9.00;99.90;;;;;;4956666;28;20509;-71
2024/02/23 10:32:59;;;;;;;3.33;1.17;;;9.00;99.90;;;;;;4974520;28;20460;-71
2024/02/23 10:35:26;;;;;;;2.63;1.00;;;9.10;99.90;;;;;;4993212;28;20453;-70
2024/02/23 10:37:53;;;;;;;6.00;1.60;;;9.10;99.90;;;;;;4993649;28;20500;-71
2024/02/23 10:40:20;;;;;;;3.70;1.47;;;9.10;99.90;;;;;;4993453;28;20441;-69
2024/02/23 10:42:53;;;;;;;3.80;1.50;;;9.30;99.90;;;;;;4993597;28;20409;-72
2024/02/23 10:45:21;;;;;;;2.40;1.33;;;9.50;99.90;;;;;;4989263;28;20448;-71
2024/02/23 10:47:48;;;;;;;2.30;1.00;;;9.60;99.90;;;;;;4974086;28;20456;-70
2024/02/23 10:50:15;;;;;;;4.93;1.50;;;9.50;99.90;;;;;;4973769;28;20416;-71
2024/02/23 10:52:42;;;;;;;2.53;1.17;;;9.60;99.90;;;;;;4972304;28;20462;-70
2024/02/23 10:55:11;;;;;;;4.70;1.40;;;9.60;99.90;;;;;;4991296;28;20447;-70
2024/02/23 10:57:37;;;;;;;7.20;1.23;;;9.60;99.90;;;;;;4992891;28;20408;-71
2024/02/23 11:00:09;;;;;;;2.50;1.03;;;9.50;99.90;;;;;;4992222;28;20412;-72
2024/02/23 11:02:48;;;;;;;2.73;1.27;;;9.50;99.90;;;;;;4991856;28;20476;-70
2024/02/23 11:05:15;;;;;;;6.23;1.37;;;9.60;99.90;;;;;;4992898;28;20444;-71
2024/02/23 11:07:41;;;;;;;2.70;1.50;;;10.10;99.90;;;;;;4993044;28;20470;-70
2024/02/23 11:10:08;;;;;;;2.23;1.20;;;10.30;99.90;;;;;;4993525;28;20414;-71
2024/02/23 11:12:35;;;;;;;4.43;1.60;;;10.40;99.90;;;;;;4993247;28;20188;-71
2024/02/23 11:15:01;;;;;;;3.03;1.23;;;10.20;99.90;;;;;;4976337;28;20915;-71
2024/02/23 11:17:29;;;;;;;4.60;1.17;;;10.40;99.90;;;;;;4991876;28;20415;-70
2024/02/23 11:19:56;;;;;;;2.67;1.10;;;10.30;99.90;;;;;;4997026;28;20413;-71
2024/02/23 11:22:31;;;;;;;1.80;1.30;;;10.30;99.90;;;;;;4995474;28;20457;-70
2024/02/23 11:25:08;;;;;;;3.67;1.30;;;10.20;99.90;;;;;;5060672;23;20495;-71
2024/02/23 11:27:34;;;;;;;3.80;1.17;;;10.20;99.90;;;;;;5050522;28;20397;-74
2024/02/23 11:30:02;;;;;;;3.63;1.00;;;10.10;99.90;;;;;;5036341;28;20912;-73
2024/02/23 11:32:39;;;;;;;2.50;1.27;;;10.10;99.90;;;;;;5036173;28;20530;-72
2024/02/23 11:35:06;;;;;;;5.50;1.20;;;10.10;99.90;;;;;;5036061;28;20485;-72
2024/02/23 11:37:32;;;;;;;4.20;1.17;;;10.10;99.90;;;;;;5036101;28;20435;-73
2024/02/23 11:40:04;;;;;;;2.87;1.50;;;10.30;99.90;;;;;;5036048;28;20406;-73
2024/02/23 11:42:31;;;;;;;2.83;0.97;;;10.20;99.90;;;;;;5036487;28;20746;-72
2024/02/23 11:44:58;;;;;;;4.60;1.73;;;10.40;99.90;;;;;;5035831;28;20433;-73
2024/02/23 11:47:24;;;;;;;2.13;1.10;;;10.50;99.90;;;;;;5036203;28;20499;-73
2024/02/23 11:49:50;;;;;;;5.00;1.33;;;10.50;99.90;;;;;;5036204;28;20401;-72
2024/02/23 11:52:16;;;;;;;2.83;1.30;;;10.70;99.90;;;;;;5032827;28;20449;-72
2024/02/23 11:54:42;;;;;;;2.60;1.17;;;10.50;99.90;;;;;;5035763;28;20320;-72
2024/02/23 11:57:08;;;;;;;2.90;1.17;;;10.60;99.90;;;;;;5035834;28;20403;-73
2024/02/23 11:59:33;;;;;;;3.40;1.00;;;10.50;99.90;;;;;;5035717;28;20222;-72
2024/02/23 12:01:59;;;;;;;3.13;1.13;;;10.40;99.90;;;;;;5035879;28;20272;-76
2024/02/23 12:04:27;;;;;;;2.00;1.20;;;10.20;99.90;;;;;;5035937;28;20561;-73
2024/02/23 12:06:53;;;;;;;3.53;1.33;;;10.30;99.90;;;;;;5035800;28;20227;-73
2024/02/23 12:09:19;;;;;;;3.50;1.30;;;10.30;99.90;;;;;;5036406;28;20416;-73
2024/02/23 12:11:44;;;;;;;8.90;1.70;;;10.30;99.90;;;;;;5036197;28;20232;-73
2024/02/23 12:14:11;;;;;;;2.03;1.30;;;10.40;99.90;;;;;;5035387;28;20509;-73
2024/02/23 12:16:36;;;;;;;2.10;0.97;;;10.40;99.90;;;;;;5035796;28;20250;-73
2024/02/23 12:19:03;;;;;;;3.87;1.17;;;10.60;99.90;;;;;;5035541;28;20433;-73
2024/02/23 12:21:29;;;;;;;2.53;0.97;;;10.70;99.90;;;;;;5035334;28;20646;-73
2024/02/23 12:23:54;;;;;;;5.63;1.30;;;10.80;99.90;;;;;;5035156;28;20449;-73
2024/02/23 12:26:20;;;;;;;3.00;1.50;;;10.80;99.90;;;;;;5035536;28;20158;-73
2024/02/23 12:28:46;;;;;;;3.73;1.70;;;10.70;99.90;;;;;;5035205;28;20177;-73
2024/02/23 12:31:12;;;;;;;5.23;1.60;;;10.90;99.90;;;;;;5035105;28;20449;-73
2024/02/23 12:33:42;;;;;;;2.90;1.40;;;10.60;99.90;;;;;;5035105;28;20785;-74
2024/02/23 12:36:08;;;;;;;1.77;1.10;;;10.90;99.90;;;;;;5035176;28;20167;-73
2024/02/23 12:38:35;;;;;;;4.07;1.23;;;11.30;99.90;;;;;;5035207;28;20402;-72
2024/02/23 12:41:02;;;;;;;3.10;1.17;;;11.10;99.90;;;;;;5035042;28;20460;-74
2024/02/23 12:43:28;;;;;;;4.57;1.50;;;10.90;99.90;;;;;;5035573;28;20412;-73
2024/02/23 12:45:54;;;;;;;7.97;1.60;;;10.90;99.90;;;;;;5035166;28;20426;-72
2024/02/23 12:48:21;;;;;;;10.63;1.60;;;10.90;99.90;;;;;;5035133;28;20182;-72
2024/02/23 12:50:47;;;;;;;3.00;1.37;;;10.80;99.90;;;;;;5034770;28;20397;-72
2024/02/23 12:53:33;;;;;;;1.53;1.10;;;10.70;99.90;;;;;;5034615;28;20422;-71